createdAt,value
2018-02-18T00:01:14.060Z,9.10
2018-02-18T00:03:41.699Z,10.30
2018-02-18T00:06:09.226Z,11.23
2018-02-18T00:08:37.522Z,11.47
2018-02-18T00:11:09.106Z,9.73
2018-02-18T00:13:36.649Z,10.50
2018-02-18T00:16:04.162Z,10.17
2018-02-18T00:18:32.469Z,8.10
2018-02-18T00:21:00.054Z,8.17
2018-02-18T00:23:27.858Z,10.07
2018-02-18T00:25:56.342Z,12.33
2018-02-18T00:28:24.749Z,8.37
2018-02-18T00:30:52.425Z,11.70
2018-02-18T00:33:19.953Z,10.20
2018-02-18T00:35:49.641Z,10.67
2018-02-18T00:38:18.378Z,9.30
2018-02-18T00:40:45.887Z,11.30
2018-02-18T00:43:17.415Z,14.00
2018-02-18T00:45:45.825Z,11.93
2018-02-18T00:48:14.100Z,7.97
2018-02-18T00:50:49.669Z,11.23
2018-02-18T00:53:18.002Z,9.77
2018-02-18T00:55:45.600Z,7.93
2018-02-18T00:58:14.017Z,9.67
2018-02-18T01:13:41.638Z,13.10
2018-02-18T01:16:09.960Z,12.57
2018-02-18T01:18:37.501Z,12.43
2018-02-18T01:21:08.866Z,10.60
2018-02-18T01:23:36.381Z,12.87
2018-02-18T01:26:08.548Z,8.37
2018-02-18T01:28:36.843Z,12.60
2018-02-18T01:31:05.109Z,13.37
2018-02-18T01:33:33.518Z,11.70
2018-02-18T01:36:01.181Z,10.77
2018-02-18T01:38:32.990Z,11.63
2018-02-18T01:41:00.521Z,11.47
2018-02-18T01:43:32.084Z,9.97
2018-02-18T01:46:00.483Z,9.97
2018-02-18T01:48:28.005Z,14.73
2018-02-18T01:51:00.475Z,12.07
2018-02-18T01:53:28.031Z,11.03
2018-02-18T01:55:55.564Z,15.33
2018-02-18T01:58:24.364Z,14.10
2018-02-18T02:00:52.025Z,14.30
2018-02-18T02:03:19.693Z,15.33
2018-02-18T02:05:48.168Z,13.70
2018-02-18T02:08:15.844Z,15.70
2018-02-18T02:10:43.353Z,14.20
2018-02-18T02:13:11.067Z,11.67
2018-02-18T02:15:38.573Z,14.27
2018-02-18T02:18:06.079Z,15.03
2018-02-18T02:20:33.746Z,12.43
2018-02-18T02:23:01.261Z,14.00
2018-02-18T02:25:29.615Z,14.70
2018-02-18T02:27:57.202Z,17.30
2018-02-18T02:30:24.792Z,13.47
2018-02-18T02:32:52.318Z,12.67
2018-02-18T02:35:19.848Z,14.00
2018-02-18T02:37:51.343Z,13.73
2018-02-18T02:40:23.206Z,17.43
2018-02-18T02:42:51.583Z,15.33
2018-02-18T02:45:24.061Z,12.57
2018-02-18T02:47:52.496Z,13.83
2018-02-18T02:50:20.038Z,13.90
2018-02-18T02:52:47.570Z,11.40
2018-02-18T02:55:19.820Z,18.83
2018-02-18T02:57:48.110Z,13.07
2018-02-18T03:00:16.416Z,14.13
2018-02-18T03:02:44.889Z,11.03
2018-02-18T03:05:12.404Z,13.53
2018-02-18T03:07:42.689Z,11.17
2018-02-18T03:10:10.445Z,13.17
2018-02-18T03:12:37.969Z,13.67
2018-02-18T03:15:06.822Z,13.37
2018-02-18T03:17:34.346Z,12.77
2018-02-18T03:20:06.778Z,13.70
2018-02-18T03:22:35.107Z,12.93
2018-02-18T03:25:03.113Z,17.27
2018-02-18T03:27:30.618Z,11.60
2018-02-18T03:29:58.191Z,12.83
2018-02-18T03:32:25.810Z,12.33
2018-02-18T03:34:53.396Z,13.77
2018-02-18T03:37:22.547Z,15.63
2018-02-18T03:39:54.243Z,13.47
2018-02-18T03:42:23.266Z,12.20
2018-02-18T03:44:54.931Z,16.53
2018-02-18T03:47:22.432Z,16.53
2018-02-18T03:49:49.953Z,12.10
2018-02-18T03:52:17.478Z,12.17
2018-02-18T03:54:45.852Z,18.07
2018-02-18T03:57:14.152Z,15.73
2018-02-18T03:59:41.690Z,13.23
2018-02-18T04:02:10.161Z,16.90
2018-02-18T04:04:38.436Z,14.03
2018-02-18T04:07:06.741Z,14.03
2018-02-18T04:09:34.298Z,13.87
2018-02-18T04:12:02.587Z,14.20
2018-02-18T04:14:30.094Z,16.00
2018-02-18T04:16:58.406Z,15.07
2018-02-18T04:19:27.210Z,18.30
2018-02-18T04:21:59.750Z,14.93
2018-02-18T04:24:28.064Z,19.60
2018-02-18T04:26:55.754Z,15.70
2018-02-18T04:29:23.281Z,15.70
2018-02-18T04:31:51.518Z,22.23
2018-02-18T04:34:19.077Z,17.10
2018-02-18T04:36:47.397Z,19.67
2018-02-18T04:39:14.928Z,27.03
2018-02-18T04:41:49.185Z,25.80
2018-02-18T04:44:16.705Z,28.20
2018-02-18T04:46:53.263Z,20.87
2018-02-18T04:49:20.788Z,23.47
2018-02-18T04:51:52.517Z,20.57
2018-02-18T04:54:24.925Z,26.47
2018-02-18T04:56:52.466Z,29.60
2018-02-18T04:59:19.981Z,24.20
2018-02-18T05:01:48.756Z,26.47
2018-02-18T05:04:16.294Z,25.33
2018-02-18T05:06:47.778Z,25.27
2018-02-18T05:09:19.318Z,18.80
2018-02-18T05:11:46.842Z,24.93
2018-02-18T05:14:14.803Z,28.60
2018-02-18T05:16:42.366Z,22.87
2018-02-18T05:19:09.968Z,25.77
2018-02-18T05:21:37.509Z,23.93
2018-02-18T05:24:05.120Z,29.10
2018-02-18T05:26:33.422Z,26.13
2018-02-18T05:29:00.930Z,25.30
2018-02-18T05:31:28.791Z,28.90
2018-02-18T05:33:56.769Z,30.40
2018-02-18T05:36:24.278Z,23.50
2018-02-18T05:38:51.816Z,31.23
2018-02-18T05:41:20.101Z,31.53
2018-02-18T05:43:47.640Z,28.60
2018-02-18T05:46:15.959Z,30.67
2018-02-18T05:48:44.537Z,34.03
2018-02-18T05:51:12.071Z,35.13
2018-02-18T05:53:40.345Z,30.67
2018-02-18T05:56:09.410Z,31.60
2018-02-18T05:58:37.940Z,34.93
2018-02-18T06:01:06.293Z,33.13
2018-02-18T06:03:34.583Z,27.23
2018-02-18T06:06:02.130Z,33.67
2018-02-18T06:08:30.545Z,36.97
2018-02-18T06:10:58.040Z,35.07
2018-02-18T06:23:15.599Z,36.70
2018-02-18T06:25:43.142Z,31.83
2018-02-18T06:28:10.657Z,33.33
2018-02-18T06:30:38.586Z,32.93
2018-02-18T06:33:06.794Z,29.10
2018-02-18T06:35:35.227Z,34.23
2018-02-18T06:38:02.745Z,29.20
2018-02-18T06:40:30.274Z,32.47
2018-02-18T06:42:57.839Z,27.33
2018-02-18T06:45:25.377Z,28.30
2018-02-18T07:00:58.062Z,24.90
2018-02-18T07:03:25.600Z,22.17
2018-02-18T07:05:53.169Z,28.60
2018-02-18T07:08:20.683Z,26.47
2018-02-18T07:10:52.585Z,25.97
2018-02-18T07:13:20.091Z,22.10
2018-02-18T07:15:47.636Z,22.27
2018-02-18T07:18:15.163Z,23.73
2018-02-18T07:20:42.673Z,21.63
2018-02-18T07:23:10.976Z,19.47
2018-02-18T07:25:39.270Z,18.30
2018-02-18T07:28:06.891Z,18.07
2018-02-18T07:30:35.976Z,18.37
2018-02-18T07:33:03.479Z,16.37
2018-02-18T07:35:31.763Z,19.73
2018-02-18T07:37:59.294Z,17.57
2018-02-18T07:40:27.599Z,14.40
2018-02-18T07:42:55.278Z,14.33
2018-02-18T07:45:22.797Z,15.43
2018-02-18T07:47:51.213Z,14.07
2018-02-18T07:50:19.978Z,15.93
2018-02-18T07:52:48.372Z,14.73
2018-02-18T07:55:15.913Z,17.73
2018-02-18T07:57:44.228Z,12.73
2018-02-18T08:00:12.395Z,10.07
2018-02-18T08:02:39.938Z,11.97
2018-02-18T08:05:07.517Z,11.77
2018-02-18T08:07:35.179Z,12.27
2018-02-18T08:10:06.648Z,12.93
2018-02-18T08:12:35.119Z,10.50
2018-02-18T08:15:02.679Z,10.50
2018-02-18T08:17:30.200Z,11.13
2018-02-18T08:19:58.504Z,9.77
2018-02-18T08:22:26.061Z,10.47
2018-02-18T08:24:53.726Z,11.23
2018-02-18T08:27:21.250Z,11.03
2018-02-18T08:29:49.592Z,8.07
2018-02-18T08:32:21.089Z,10.17
2018-02-18T08:34:49.601Z,9.33
2018-02-18T08:37:17.249Z,8.03
2018-02-18T08:39:45.018Z,7.97
2018-02-18T08:42:12.667Z,8.40
2018-02-18T08:44:40.201Z,6.93
2018-02-18T08:47:07.735Z,7.07
2018-02-18T08:49:35.255Z,6.07
2018-02-18T08:52:02.918Z,8.57
2018-02-18T08:54:30.436Z,8.43
2018-02-18T08:56:58.040Z,8.57
2018-02-18T08:59:25.592Z,8.87
2018-02-18T09:01:53.119Z,6.97
2018-02-18T09:04:20.720Z,7.57
2018-02-18T09:06:49.495Z,8.13
2018-02-18T09:09:17.774Z,8.57
2018-02-18T09:11:46.332Z,7.68
2018-02-18T09:14:13.953Z,6.00
2018-02-18T09:16:41.487Z,7.47
2018-02-18T09:19:09.085Z,5.37
2018-02-18T09:21:36.826Z,6.03
2018-02-18T09:24:04.337Z,5.03
2018-02-18T09:26:33.175Z,7.60
2018-02-18T09:29:01.474Z,6.27
2018-02-18T09:31:29.027Z,5.95
2018-02-18T09:33:56.576Z,6.47
2018-02-18T09:36:24.158Z,5.85
2018-02-18T09:38:55.891Z,6.12
2018-02-18T09:41:23.554Z,7.30
2018-02-18T09:43:52.189Z,7.35
2018-02-18T09:46:21.450Z,7.13
2018-02-18T09:48:48.993Z,6.37
2018-02-18T09:51:17.372Z,6.93
2018-02-18T09:53:44.941Z,8.13
2018-02-18T09:56:12.501Z,6.27
2018-02-18T09:58:40.026Z,6.33
2018-02-18T10:01:08.457Z,5.07
2018-02-18T10:03:36.000Z,7.03
2018-02-18T10:06:03.972Z,5.93
2018-02-18T10:08:31.629Z,7.17
2018-02-18T10:10:59.157Z,5.17
2018-02-18T10:13:27.458Z,4.43
2018-02-18T10:15:54.964Z,6.47
2018-02-18T10:18:22.493Z,7.17
2018-02-18T10:20:50.350Z,7.13
2018-02-18T10:23:17.917Z,8.30
2018-02-18T10:25:45.437Z,7.30
2018-02-18T10:28:13.811Z,6.93
2018-02-18T10:30:41.724Z,7.90
2018-02-18T10:33:10.517Z,6.87
2018-02-18T10:35:38.066Z,7.43
2018-02-18T10:51:05.659Z,8.47
2018-02-18T10:53:33.188Z,7.87
2018-02-18T10:56:01.482Z,7.67
2018-02-18T10:58:29.048Z,9.13
2018-02-18T11:00:56.571Z,7.17
2018-02-18T11:03:24.898Z,10.10
2018-02-18T11:05:56.111Z,8.70
2018-02-18T11:08:23.637Z,9.30
2018-02-18T11:10:52.325Z,7.10
2018-02-18T11:13:20.555Z,6.80
2018-02-18T11:15:48.809Z,7.40
2018-02-18T11:18:16.432Z,8.23
2018-02-18T11:20:43.990Z,8.47
2018-02-18T11:23:11.558Z,7.93
2018-02-18T11:25:39.191Z,8.57
2018-02-18T11:28:06.734Z,8.90
2018-02-18T11:30:34.288Z,10.20
2018-02-18T11:33:09.746Z,9.97
2018-02-18T11:35:37.292Z,10.67
2018-02-18T11:38:05.669Z,6.77
2018-02-18T11:40:41.201Z,8.67
2018-02-18T11:43:10.421Z,8.77
2018-02-18T11:45:38.708Z,10.30
2018-02-18T11:48:14.674Z,8.50
2018-02-18T11:50:46.324Z,9.03
2018-02-18T11:53:14.823Z,9.03
2018-02-18T11:55:42.370Z,10.93
2018-02-18T11:58:09.896Z,8.90
2018-02-18T12:00:37.472Z,9.73
2018-02-18T12:03:06.235Z,7.23
2018-02-18T12:05:37.643Z,7.40
2018-02-18T12:08:05.194Z,8.73
2018-02-18T12:10:32.794Z,7.60
2018-02-18T12:13:01.085Z,8.93
2018-02-18T12:15:29.387Z,10.40
2018-02-18T12:17:57.310Z,8.47
2018-02-18T12:20:24.950Z,12.53
2018-02-18T12:22:53.177Z,10.57
2018-02-18T12:25:20.707Z,8.40
2018-02-18T12:27:48.394Z,7.13
2018-02-18T12:30:16.690Z,9.07
2018-02-18T12:32:44.251Z,9.97
2018-02-18T12:35:12.777Z,10.50
2018-02-18T12:37:40.417Z,11.93
2018-02-18T12:40:08.549Z,9.20
2018-02-18T12:42:36.916Z,9.70
2018-02-18T12:45:06.027Z,9.93
2018-02-18T12:47:33.556Z,14.07
2018-02-18T12:50:01.177Z,10.67
2018-02-18T12:52:28.737Z,11.50
2018-02-18T12:54:56.274Z,11.77
2018-02-18T12:57:24.880Z,10.70
2018-02-18T12:59:52.739Z,10.73
2018-02-18T13:02:28.434Z,12.03
2018-02-18T13:04:55.968Z,10.77
2018-02-18T13:07:23.576Z,10.80
2018-02-18T13:09:51.889Z,9.43
2018-02-18T13:12:19.448Z,10.57
2018-02-18T13:14:47.007Z,10.03
2018-02-18T13:17:14.578Z,11.20
2018-02-18T13:19:42.132Z,9.80
2018-02-18T13:22:09.653Z,10.23
2018-02-18T13:24:38.017Z,10.30
2018-02-18T13:27:05.777Z,10.23
2018-02-18T13:29:33.317Z,10.20
2018-02-18T13:32:00.862Z,10.00
2018-02-18T13:34:29.018Z,10.17
2018-02-18T13:36:57.841Z,13.97
2018-02-18T13:39:26.878Z,9.30
2018-02-18T13:41:55.184Z,10.20
2018-02-18T13:44:22.846Z,12.70
2018-02-18T13:46:50.434Z,9.57
2018-02-18T13:49:17.985Z,10.97
2018-02-18T14:01:35.556Z,10.10
2018-02-18T14:04:03.103Z,14.40
2018-02-18T14:06:30.630Z,9.07
2018-02-18T14:08:58.165Z,11.60
2018-02-18T14:11:25.738Z,12.93
2018-02-18T14:13:53.344Z,12.57
2018-02-18T14:16:21.573Z,11.37
2018-02-18T14:18:49.082Z,11.33
2018-02-18T14:21:16.770Z,10.63
2018-02-18T14:23:44.319Z,9.90
2018-02-18T14:26:12.018Z,11.80
2018-02-18T14:28:40.106Z,11.13
2018-02-18T14:31:07.728Z,11.57
2018-02-18T14:33:39.975Z,12.47
2018-02-18T14:36:07.498Z,10.93
2018-02-18T14:38:35.126Z,17.13
2018-02-18T14:41:02.649Z,13.23
2018-02-18T14:43:42.161Z,14.13
2018-02-18T14:46:21.691Z,12.10
2018-02-18T14:49:01.393Z,11.07
2018-02-18T14:51:40.943Z,12.57
2018-02-18T14:54:21.194Z,13.37
2018-02-18T14:57:00.591Z,11.00
2018-02-18T14:59:28.894Z,12.70
2018-02-18T15:01:56.987Z,13.70
2018-02-18T15:04:24.658Z,13.93
2018-02-18T15:06:52.616Z,10.67
2018-02-18T15:09:20.185Z,11.67
2018-02-18T15:11:47.736Z,13.20
2018-02-18T15:14:15.320Z,10.30
2018-02-18T15:16:42.846Z,12.10
2018-02-18T15:19:10.402Z,11.13
2018-02-18T15:21:37.986Z,10.90
2018-02-18T15:24:05.861Z,10.97
2018-02-18T15:26:33.504Z,11.27
2018-02-18T15:29:01.031Z,13.70
2018-02-18T15:31:28.581Z,10.27
2018-02-18T15:33:56.891Z,12.17
2018-02-18T15:36:24.436Z,12.47
2018-02-18T15:38:51.980Z,11.50
2018-02-18T15:41:20.285Z,10.43
2018-02-18T15:43:52.464Z,11.07
2018-02-18T15:46:20.125Z,12.20
2018-02-18T15:48:47.686Z,10.57
2018-02-18T15:51:15.271Z,10.67
2018-02-18T15:53:42.808Z,12.90
2018-02-18T15:56:10.354Z,12.70
2018-02-18T15:58:37.916Z,14.53
2018-02-18T16:01:05.480Z,15.97
2018-02-18T16:03:32.984Z,10.67
2018-02-18T16:06:00.559Z,13.80
2018-02-18T16:08:28.875Z,11.57
2018-02-18T16:10:56.412Z,13.03
2018-02-18T16:13:24.717Z,13.37
2018-02-18T16:15:52.253Z,15.87
2018-02-18T16:18:20.556Z,12.87
2018-02-18T16:20:48.163Z,11.60
2018-02-18T16:23:15.994Z,15.27
2018-02-18T16:25:43.512Z,11.10
2018-02-18T16:28:12.028Z,11.23
2018-02-18T16:30:39.586Z,9.90
2018-02-18T16:33:07.109Z,12.17
2018-02-18T16:35:35.424Z,11.40
2018-02-18T16:38:02.955Z,13.27
2018-02-18T16:40:31.990Z,15.50
2018-02-18T16:42:59.526Z,12.20
2018-02-18T16:45:27.083Z,16.87
2018-02-18T16:47:54.608Z,13.27
2018-02-18T16:50:22.131Z,10.83
2018-02-18T16:52:51.347Z,12.90
2018-02-18T16:55:18.888Z,9.47
2018-02-18T16:57:46.743Z,12.00
2018-02-18T17:00:14.261Z,16.37
2018-02-18T17:02:42.600Z,14.73
2018-02-18T17:05:11.068Z,13.37
2018-02-18T17:07:39.143Z,12.47
2018-02-18T17:10:06.673Z,14.83
2018-02-18T17:12:34.558Z,12.53
2018-02-18T17:15:02.091Z,13.97
2018-02-18T17:17:29.641Z,14.23
2018-02-18T17:19:57.935Z,13.30
2018-02-18T17:22:25.491Z,16.13
2018-02-18T17:24:53.790Z,12.77
2018-02-18T17:27:21.341Z,11.70
2018-02-18T17:29:48.925Z,13.70
2018-02-18T17:32:16.588Z,14.77
2018-02-18T17:34:44.128Z,14.07
2018-02-18T17:37:11.688Z,11.10
2018-02-18T17:39:39.229Z,15.13
2018-02-18T17:42:07.515Z,11.93
2018-02-18T17:44:35.041Z,14.90
2018-02-18T17:47:02.571Z,15.90
2018-02-18T17:49:30.133Z,12.70
2018-02-18T17:51:57.677Z,13.60
2018-02-18T17:54:25.191Z,13.43
2018-02-18T17:56:53.599Z,13.20
2018-02-18T17:59:22.198Z,14.93
2018-02-18T18:01:49.733Z,12.17
2018-02-18T18:04:17.275Z,13.47
2018-02-18T18:06:45.613Z,20.17
2018-02-18T18:09:13.165Z,15.27
2018-02-18T18:11:40.714Z,16.73
2018-02-18T18:14:08.239Z,15.30
2018-02-18T18:16:36.525Z,13.83
2018-02-18T18:19:05.704Z,11.90
2018-02-18T18:21:34.616Z,10.67
2018-02-18T18:24:03.533Z,12.87
2018-02-18T18:26:31.393Z,11.07
2018-02-18T18:28:59.026Z,14.47
2018-02-18T18:31:27.352Z,12.37
2018-02-18T18:33:54.869Z,13.23
2018-02-18T18:36:23.314Z,12.53
2018-02-18T18:38:50.848Z,13.23
2018-02-18T18:41:18.439Z,15.07
2018-02-18T18:43:48.072Z,13.03
2018-02-18T18:46:17.305Z,18.30
2018-02-18T18:48:45.271Z,14.27
2018-02-18T18:51:12.820Z,13.07
2018-02-18T18:53:40.352Z,16.03
2018-02-18T18:56:08.875Z,18.70
2018-02-18T18:58:36.448Z,19.87
2018-02-18T19:01:04.548Z,16.10
2018-02-18T19:03:32.864Z,18.07
2018-02-18T19:06:00.411Z,18.30
2018-02-18T19:08:29.356Z,19.23
2018-02-18T19:10:56.913Z,18.23
2018-02-18T19:13:24.435Z,16.10
2018-02-18T19:15:51.993Z,19.47
2018-02-18T19:18:20.993Z,13.70
2018-02-18T19:20:48.691Z,14.33
2018-02-18T19:23:16.308Z,12.53
2018-02-18T19:25:44.602Z,12.87
2018-02-18T19:28:12.298Z,15.03
2018-02-18T19:30:40.058Z,15.17
2018-02-18T19:33:07.703Z,14.73
2018-02-18T19:35:35.235Z,15.23
2018-02-18T19:38:04.343Z,14.53
2018-02-18T19:40:31.949Z,18.00
2018-02-18T19:42:59.453Z,15.90
2018-02-18T19:45:27.814Z,19.27
2018-02-18T19:47:57.085Z,17.43
2018-02-18T19:50:24.674Z,19.77
2018-02-18T19:52:53.093Z,18.37
2018-02-18T19:55:20.612Z,17.03
2018-02-18T19:57:48.337Z,21.67
2018-02-18T20:00:15.876Z,18.43
2018-02-18T20:02:43.430Z,20.03
2018-02-18T20:05:14.949Z,20.03
2018-02-18T20:07:43.429Z,17.87
2018-02-18T20:10:12.475Z,19.90
2018-02-18T20:12:40.011Z,20.70
2018-02-18T20:15:09.466Z,20.33
2018-02-18T20:17:37.503Z,20.17
2018-02-18T20:20:09.436Z,19.70
2018-02-18T20:22:37.855Z,18.13
2018-02-18T20:25:05.524Z,17.17
2018-02-18T20:27:33.033Z,18.00
2018-02-18T20:30:01.494Z,19.33
2018-02-18T20:32:29.081Z,17.87
2018-02-18T20:34:58.430Z,16.30
2018-02-18T20:37:26.434Z,19.40
2018-02-18T20:39:54.085Z,16.60
2018-02-18T20:42:21.704Z,16.90
2018-02-18T20:44:49.238Z,16.60
2018-02-18T20:47:17.596Z,15.80
2018-02-18T20:49:50.535Z,15.03
2018-02-18T20:52:18.091Z,15.93
2018-02-18T20:54:45.676Z,16.83
2018-02-18T20:57:13.808Z,14.83
2018-02-18T20:59:41.495Z,17.43
2018-02-18T21:02:10.595Z,14.93
2018-02-18T21:04:38.171Z,16.80
2018-02-18T21:07:05.861Z,15.20
2018-02-18T21:09:38.190Z,13.53
2018-02-18T21:12:05.762Z,15.30
2018-02-18T21:14:34.195Z,15.70
2018-02-18T21:17:02.527Z,14.20
2018-02-18T21:19:30.162Z,18.80
2018-02-18T21:21:57.720Z,14.17
2018-02-18T21:24:25.286Z,15.40
2018-02-18T21:26:52.816Z,15.73
2018-02-18T21:29:21.119Z,14.60
2018-02-18T21:31:53.438Z,16.50
2018-02-18T21:34:21.001Z,16.33
2018-02-18T21:36:49.318Z,11.30
2018-02-18T21:39:17.143Z,15.33
2018-02-18T21:41:45.465Z,14.67
2018-02-18T21:44:13.016Z,14.17
2018-02-18T21:46:40.547Z,16.07
2018-02-18T21:49:08.880Z,16.60
2018-02-18T21:51:36.576Z,14.53
2018-02-18T21:54:04.923Z,12.57
2018-02-18T21:56:32.568Z,14.60
2018-02-18T21:59:00.133Z,15.77
2018-02-18T22:01:27.731Z,14.00
2018-02-18T22:03:55.309Z,17.63
2018-02-18T22:06:24.311Z,14.37
2018-02-18T22:08:52.612Z,16.80
2018-02-18T22:11:20.314Z,17.13
2018-02-18T22:13:47.980Z,15.30
2018-02-18T22:16:16.240Z,15.20
2018-02-18T22:18:43.766Z,16.57
2018-02-18T22:21:11.338Z,14.60
2018-02-18T22:23:38.898Z,19.50
2018-02-18T22:26:06.564Z,14.10
2018-02-18T22:28:34.229Z,14.93
2018-02-18T22:31:01.769Z,14.83
2018-02-18T22:33:29.407Z,15.07
2018-02-18T22:35:57.945Z,14.93
2018-02-18T22:38:25.637Z,15.77
2018-02-18T22:40:53.985Z,15.67
2018-02-18T22:43:21.518Z,14.30
2018-02-18T22:45:49.465Z,15.90
2018-02-18T22:48:18.104Z,17.30
2018-02-18T22:50:45.656Z,15.43
2018-02-18T22:53:14.200Z,18.07
2018-02-18T22:55:42.497Z,17.83
2018-02-18T22:58:10.076Z,18.17
2018-02-18T23:00:37.632Z,14.63
2018-02-18T23:03:05.186Z,16.80
2018-02-18T23:05:38.374Z,16.63
2018-02-18T23:08:07.045Z,15.77
2018-02-18T23:10:35.393Z,15.73
2018-02-18T23:13:03.702Z,14.77
2018-02-18T23:15:36.046Z,16.77
2018-02-18T23:18:03.899Z,17.07
2018-02-18T23:20:43.209Z,16.97
2018-02-18T23:23:10.858Z,17.03
2018-02-18T23:25:38.371Z,14.63
2018-02-18T23:28:07.402Z,17.00
2018-02-18T23:30:34.950Z,14.20
2018-02-18T23:33:02.521Z,13.80
2018-02-18T23:35:30.036Z,17.17
2018-02-18T23:37:59.192Z,13.03
2018-02-18T23:40:26.740Z,18.90
2018-02-18T23:42:54.300Z,15.00
2018-02-18T23:45:21.867Z,19.63
2018-02-18T23:47:49.964Z,16.97
2018-02-18T23:50:17.488Z,16.83
2018-02-18T23:52:45.032Z,15.93
2018-02-18T23:55:13.345Z,18.80
2018-02-18T23:57:41.815Z,16.57
